sensor_id;sensor_type;location;lat;lon;timestamp;pressure;altitude;pressure_sealevel;temperature;humidity
11124;BME280;5616;42.692;23.312;2024-03-23T00:54:16;95349.63;;;7.26;54.02
11124;BME280;5616;42.692;23.312;2024-03-23T00:56:41;95346.47;;;7.24;54.87
11124;BME280;5616;42.692;23.312;2024-03-23T00:59:07;95350.00;;;7.23;54.47
11124;BME280;5616;42.692;23.312;2024-03-23T01:01:32;95349.63;;;7.26;54.03
11124;BME280;5616;42.692;23.312;2024-03-23T01:03:58;95342.94;;;7.25;54.15
11124;BME280;5616;42.692;23.312;2024-03-23T01:06:24;95347.00;;;7.19;54.03
11124;BME280;5616;42.692;23.312;2024-03-23T01:08:50;95340.50;;;7.17;54.01
11124;BME280;5616;42.692;23.312;2024-03-23T01:11:15;95331.41;;;7.14;55.22
11124;BME280;5616;42.692;23.312;2024-03-23T01:13:41;95338.69;;;7.11;55.34
11124;BME280;5616;42.692;23.312;2024-03-23T01:16:06;95327.06;;;7.08;54.99
11124;BME280;5616;42.692;23.312;2024-03-23T01:18:32;95325.84;;;7.04;55.45
11124;BME280;5616;42.692;23.312;2024-03-23T01:20:58;95339.19;;;7.00;55.07
11124;BME280;5616;42.692;23.312;2024-03-23T01:23:23;95338.22;;;7.01;55.42
11124;BME280;5616;42.692;23.312;2024-03-23T01:25:55;95334.47;;;7.03;54.90
11124;BME280;5616;42.692;23.312;2024-03-23T01:28:21;95338.25;;;7.07;55.65
11124;BME280;5616;42.692;23.312;2024-03-23T01:30:46;95335.34;;;7.10;55.48
11124;BME280;5616;42.692;23.312;2024-03-23T01:33:12;95337.16;;;7.16;54.54
11124;BME280;5616;42.692;23.312;2024-03-23T01:35:38;95337.81;;;7.25;54.42
11124;BME280;5616;42.692;23.312;2024-03-23T01:38:03;95341.72;;;7.21;54.75
11124;BME280;5616;42.692;23.312;2024-03-23T01:40:29;95334.78;;;7.15;53.76
11124;BME280;5616;42.692;23.312;2024-03-23T01:43:04;95333.34;;;7.06;54.32
11124;BME280;5616;42.692;23.312;2024-03-23T01:45:31;95332.25;;;6.94;54.24
11124;BME280;5616;42.692;23.312;2024-03-23T01:47:57;95333.91;;;6.80;55.32
11124;BME280;5616;42.692;23.312;2024-03-23T01:50:23;95332.69;;;6.76;55.56
11124;BME280;5616;42.692;23.312;2024-03-23T01:52:51;95334.56;;;6.67;55.58
11124;BME280;5616;42.692;23.312;2024-03-23T01:55:17;95336.47;;;6.59;55.21
11124;BME280;5616;42.692;23.312;2024-03-23T01:57:42;95337.63;;;6.56;56.00
11124;BME280;5616;42.692;23.312;2024-03-23T02:00:08;95334.72;;;6.59;55.75
11124;BME280;5616;42.692;23.312;2024-03-23T02:02:44;95344.00;;;6.67;55.10
11124;BME280;5616;42.692;23.312;2024-03-23T02:05:11;95332.66;;;6.69;55.42
11124;BME280;5616;42.692;23.312;2024-03-23T02:07:38;95335.91;;;6.63;55.48
11124;BME280;5616;42.692;23.312;2024-03-23T02:10:06;95339.31;;;6.49;55.50
11124;BME280;5616;42.692;23.312;2024-03-23T02:12:31;95340.59;;;6.38;56.57
11124;BME280;5616;42.692;23.312;2024-03-23T02:14:57;95333.13;;;6.37;56.87
11124;BME280;5616;42.692;23.312;2024-03-23T02:17:22;95335.78;;;6.29;56.35
11124;BME280;5616;42.692;23.312;2024-03-23T02:19:48;95344.78;;;6.25;56.80
11124;BME280;5616;42.692;23.312;2024-03-23T02:22:14;95344.78;;;6.25;57.65
11124;BME280;5616;42.692;23.312;2024-03-23T02:24:41;95345.38;;;6.27;56.82
11124;BME280;5616;42.692;23.312;2024-03-23T02:27:06;95348.47;;;6.37;56.59
11124;BME280;5616;42.692;23.312;2024-03-23T02:29:32;95349.31;;;6.44;56.92
11124;BME280;5616;42.692;23.312;2024-03-23T02:31:57;95351.72;;;6.52;56.49
11124;BME280;5616;42.692;23.312;2024-03-23T02:34:24;95354.19;;;6.60;56.59
11124;BME280;5616;42.692;23.312;2024-03-23T02:36:50;95356.13;;;6.58;55.73
11124;BME280;5616;42.692;23.312;2024-03-23T02:39:15;95346.03;;;6.50;55.36
11124;BME280;5616;42.692;23.312;2024-03-23T02:41:41;95347.59;;;6.30;56.22
11124;BME280;5616;42.692;23.312;2024-03-23T02:44:06;95346.56;;;6.10;57.23
11124;BME280;5616;42.692;23.312;2024-03-23T02:46:32;95350.81;;;6.03;57.40
11124;BME280;5616;42.692;23.312;2024-03-23T02:48:58;95346.78;;;5.94;57.30
11124;BME280;5616;42.692;23.312;2024-03-23T02:51:23;95348.72;;;5.91;56.81
11124;BME280;5616;42.692;23.312;2024-03-23T02:53:49;95338.84;;;5.88;59.04
11124;BME280;5616;42.692;23.312;2024-03-23T02:56:14;95342.88;;;5.98;58.29
11124;BME280;5616;42.692;23.312;2024-03-23T02:58:43;95334.31;;;6.05;57.45
11124;BME280;5616;42.692;23.312;2024-03-23T03:01:08;95340.97;;;6.00;57.23
11124;BME280;5616;42.692;23.312;2024-03-23T03:03:34;95337.25;;;6.02;57.81
11124;BME280;5616;42.692;23.312;2024-03-23T03:05:59;95334.63;;;5.96;58.31
11124;BME280;5616;42.692;23.312;2024-03-23T03:08:25;95343.66;;;5.83;58.53
11124;BME280;5616;42.692;23.312;2024-03-23T03:10:50;95334.44;;;5.82;58.47
11124;BME280;5616;42.692;23.312;2024-03-23T03:13:16;95330.09;;;5.83;58.85
11124;BME280;5616;42.692;23.312;2024-03-23T03:15:43;95333.44;;;5.83;58.95
11124;BME280;5616;42.692;23.312;2024-03-23T03:18:08;95340.59;;;5.73;57.68
11124;BME280;5616;42.692;23.312;2024-03-23T03:20:38;95335.84;;;5.70;58.14
11124;BME280;5616;42.692;23.312;2024-03-23T03:23:05;95343.34;;;5.72;58.36
11124;BME280;5616;42.692;23.312;2024-03-23T03:25:30;95343.22;;;5.65;58.32
11124;BME280;5616;42.692;23.312;2024-03-23T03:27:55;95343.59;;;5.62;58.99
11124;BME280;5616;42.692;23.312;2024-03-23T03:30:21;95337.25;;;5.58;58.90
11124;BME280;5616;42.692;23.312;2024-03-23T03:32:47;95345.25;;;5.55;59.01
11124;BME280;5616;42.692;23.312;2024-03-23T03:35:12;95347.81;;;5.55;57.91
11124;BME280;5616;42.692;23.312;2024-03-23T03:37:38;95341.13;;;5.54;59.48
11124;BME280;5616;42.692;23.312;2024-03-23T03:40:03;95341.84;;;5.48;58.19
11124;BME280;5616;42.692;23.312;2024-03-23T03:42:29;95346.94;;;5.48;59.22
11124;BME280;5616;42.692;23.312;2024-03-23T03:44:55;95343.06;;;5.52;58.84
11124;BME280;5616;42.692;23.312;2024-03-23T03:47:20;95341.91;;;5.55;59.22
11124;BME280;5616;42.692;23.312;2024-03-23T03:49:47;95341.84;;;5.48;58.85
11124;BME280;5616;42.692;23.312;2024-03-23T03:52:12;95342.53;;;5.42;59.19
11124;BME280;5616;42.692;23.312;2024-03-23T03:54:38;95345.34;;;5.47;59.35
11124;BME280;5616;42.692;23.312;2024-03-23T03:57:04;95343.78;;;5.46;59.41
11124;BME280;5616;42.692;23.312;2024-03-23T03:59:29;95336.66;;;5.41;58.87
11124;BME280;5616;42.692;23.312;2024-03-23T04:01:54;95341.84;;;5.48;58.76
11124;BME280;5616;42.692;23.312;2024-03-23T04:04:20;95338.94;;;5.51;59.18
11124;BME280;5616;42.692;23.312;2024-03-23T04:06:47;95348.97;;;5.53;58.83
11124;BME280;5616;42.692;23.312;2024-03-23T04:09:13;95341.47;;;5.51;58.80
11124;BME280;5616;42.692;23.312;2024-03-23T04:11:38;95345.69;;;5.44;58.36
11124;BME280;5616;42.692;23.312;2024-03-23T04:14:04;95353.28;;;5.52;59.33
11124;BME280;5616;42.692;23.312;2024-03-23T04:16:33;95352.13;;;5.55;58.74
11124;BME280;5616;42.692;23.312;2024-03-23T04:18:59;95357.66;;;5.58;58.63
11124;BME280;5616;42.692;23.312;2024-03-23T04:21:25;95347.09;;;5.61;59.37
11124;BME280;5616;42.692;23.312;2024-03-23T04:23:50;95351.75;;;5.58;57.91
11124;BME280;5616;42.692;23.312;2024-03-23T04:26:16;95355.75;;;5.60;58.50
11124;BME280;5616;42.692;23.312;2024-03-23T04:28:42;95353.34;;;5.59;58.10
11124;BME280;5616;42.692;23.312;2024-03-23T04:31:08;95354.69;;;5.55;59.01
11124;BME280;5616;42.692;23.312;2024-03-23T04:33:34;95351.59;;;5.44;57.74
11124;BME280;5616;42.692;23.312;2024-03-23T04:35:59;95360.66;;;5.47;59.28
11124;BME280;5616;42.692;23.312;2024-03-23T04:38:25;95356.00;;;5.51;59.23
11124;BME280;5616;42.692;23.312;2024-03-23T04:40:55;95353.63;;;5.49;59.64
11124;BME280;5616;42.692;23.312;2024-03-23T04:43:20;95349.75;;;5.53;58.41
11124;BME280;5616;42.692;23.312;2024-03-23T04:45:46;95360.56;;;5.55;58.52
11124;BME280;5616;42.692;23.312;2024-03-23T04:48:11;95363.13;;;5.55;58.86
11124;BME280;5616;42.692;23.312;2024-03-23T04:50:37;95368.88;;;5.57;58.42
11124;BME280;5616;42.692;23.312;2024-03-23T04:53:02;95366.19;;;5.51;58.74
11124;BME280;5616;42.692;23.312;2024-03-23T04:55:28;95370.50;;;5.50;58.89
11124;BME280;5616;42.692;23.312;2024-03-23T04:57:53;95366.63;;;5.54;58.09
11124;BME280;5616;42.692;23.312;2024-03-23T05:00:19;95375.00;;;5.63;59.38
11124;BME280;5616;42.692;23.312;2024-03-23T05:02:45;95372.81;;;5.74;58.22
11124;BME280;5616;42.692;23.312;2024-03-23T05:05:11;95366.63;;;5.83;57.05
11124;BME280;5616;42.692;23.312;2024-03-23T05:07:36;95372.66;;;5.90;57.22
11124;BME280;5616;42.692;23.312;2024-03-23T05:10:02;95368.41;;;5.98;56.26
11124;BME280;5616;42.692;23.312;2024-03-23T05:12:28;95366.13;;;6.03;56.67
11124;BME280;5616;42.692;23.312;2024-03-23T05:14:54;95364.97;;;6.05;56.30
11124;BME280;5616;42.692;23.312;2024-03-23T05:17:19;95367.44;;;6.13;55.87
11124;BME280;5616;42.692;23.312;2024-03-23T05:19:45;95355.19;;;6.09;55.77
11124;BME280;5616;42.692;23.312;2024-03-23T05:22:10;95356.19;;;6.08;55.77
11124;BME280;5616;42.692;23.312;2024-03-23T05:24:36;95355.03;;;6.10;55.36
11124;BME280;5616;42.692;23.312;2024-03-23T05:27:01;95355.19;;;6.09;55.30
11124;BME280;5616;42.692;23.312;2024-03-23T05:29:27;95357.66;;;6.17;55.02
11124;BME280;5616;42.692;23.312;2024-03-23T05:31:52;95362.06;;;6.23;54.85
11124;BME280;5616;42.692;23.312;2024-03-23T05:34:18;95362.06;;;6.23;55.73
11124;BME280;5616;42.692;23.312;2024-03-23T05:36:43;95364.84;;;6.28;56.16
11124;BME280;5616;42.692;23.312;2024-03-23T05:39:09;95366.34;;;6.37;56.12
11124;BME280;5616;42.692;23.312;2024-03-23T05:41:34;95363.22;;;6.41;55.28
11124;BME280;5616;42.692;23.312;2024-03-23T05:44:02;95367.78;;;6.46;55.37
11124;BME280;5616;42.692;23.312;2024-03-23T05:46:28;95356.84;;;6.52;55.03
11124;BME280;5616;42.692;23.312;2024-03-23T05:48:53;95361.94;;;6.52;55.80
11124;BME280;5616;42.692;23.312;2024-03-23T05:51:26;95365.13;;;6.54;55.81
11124;BME280;5616;42.692;23.312;2024-03-23T05:53:51;95361.63;;;6.55;54.73
11124;BME280;5616;42.692;23.312;2024-03-23T05:56:19;95360.44;;;6.58;54.13
11124;BME280;5616;42.692;23.312;2024-03-23T05:58:45;95354.00;;;6.62;54.49
11124;BME280;5616;42.692;23.312;2024-03-23T06:01:11;95357.78;;;6.66;55.04
11124;BME280;5616;42.692;23.312;2024-03-23T06:03:38;95356.63;;;6.68;54.25
11124;BME280;5616;42.692;23.312;2024-03-23T06:06:03;95351.19;;;6.78;54.43
11124;BME280;5616;42.692;23.312;2024-03-23T06:08:29;95354.44;;;6.86;53.67
11124;BME280;5616;42.692;23.312;2024-03-23T06:10:55;95356.25;;;6.93;53.89
11124;BME280;5616;42.692;23.312;2024-03-23T06:13:20;95351.00;;;7.01;53.82
11124;BME280;5616;42.692;23.312;2024-03-23T06:15:50;95361.28;;;7.07;54.42
11124;BME280;5616;42.692;23.312;2024-03-23T06:18:15;95359.38;;;7.16;54.43
11124;BME280;5616;42.692;23.312;2024-03-23T06:20:41;95352.94;;;7.20;54.31
11124;BME280;5616;42.692;23.312;2024-03-23T06:23:06;95359.13;;;7.32;53.42
11124;BME280;5616;42.692;23.312;2024-03-23T06:25:32;95348.13;;;7.38;51.70
11124;BME280;5616;42.692;23.312;2024-03-23T06:27:57;95345.03;;;7.43;52.45
11124;BME280;5616;42.692;23.312;2024-03-23T06:30:28;95355.47;;;7.48;50.71
11124;BME280;5616;42.692;23.312;2024-03-23T06:32:54;95352.94;;;7.54;52.30
11124;BME280;5616;42.692;23.312;2024-03-23T06:35:20;95348.06;;;7.59;51.81
11124;BME280;5616;42.692;23.312;2024-03-23T06:37:45;95346.34;;;7.66;52.35
11124;BME280;5616;42.692;23.312;2024-03-23T06:40:11;95340.09;;;7.75;52.31
11124;BME280;5616;42.692;23.312;2024-03-23T06:42:37;95342.47;;;7.83;51.78
11124;BME280;5616;42.692;23.312;2024-03-23T06:45:03;95352.56;;;7.92;51.13
11124;BME280;5616;42.692;23.312;2024-03-23T06:47:30;95351.63;;;7.99;49.31
11124;BME280;5616;42.692;23.312;2024-03-23T06:49:56;95345.34;;;8.08;49.53
11124;BME280;5616;42.692;23.312;2024-03-23T06:52:21;95348.91;;;8.07;49.50
11124;BME280;5616;42.692;23.312;2024-03-23T06:54:46;95341.84;;;8.16;48.80
11124;BME280;5616;42.692;23.312;2024-03-23T06:57:12;95345.81;;;8.25;49.16
11124;BME280;5616;42.692;23.312;2024-03-23T06:59:38;95343.91;;;8.40;48.17
11124;BME280;5616;42.692;23.312;2024-03-23T07:02:06;95340.78;;;8.51;48.17
11124;BME280;5616;42.692;23.312;2024-03-23T07:04:34;95333.91;;;8.58;49.48
11124;BME280;5616;42.692;23.312;2024-03-23T07:07:00;95338.84;;;8.66;50.63
11124;BME280;5616;42.692;23.312;2024-03-23T07:12:29;95337.25;;;8.78;49.09
11124;BME280;5616;42.692;23.312;2024-03-23T07:14:55;95332.56;;;8.89;49.41
11124;BME280;5616;42.692;23.312;2024-03-23T07:17:20;95332.94;;;8.99;48.16
11124;BME280;5616;42.692;23.312;2024-03-23T07:19:46;95326.22;;;9.11;49.16
11124;BME280;5616;42.692;23.312;2024-03-23T07:22:12;95323.28;;;9.20;48.32
11124;BME280;5616;42.692;23.312;2024-03-23T07:24:38;95321.50;;;9.21;47.40
11124;BME280;5616;42.692;23.312;2024-03-23T07:27:04;95309.25;;;9.23;46.50
11124;BME280;5616;42.692;23.312;2024-03-23T07:29:31;95314.19;;;9.18;47.71
11124;BME280;5616;42.692;23.312;2024-03-23T07:31:56;95310.03;;;9.04;47.60
11124;BME280;5616;42.692;23.312;2024-03-23T07:34:22;95311.22;;;9.08;46.75
11124;BME280;5616;42.692;23.312;2024-03-23T07:36:47;95317.13;;;9.15;46.30
11124;BME280;5616;42.692;23.312;2024-03-23T07:39:13;95318.16;;;9.14;46.77
11124;BME280;5616;42.692;23.312;2024-03-23T07:41:38;95317.34;;;9.20;47.59
11124;BME280;5616;42.692;23.312;2024-03-23T07:44:04;95309.63;;;9.26;46.01
11124;BME280;5616;42.692;23.312;2024-03-23T07:46:29;95311.19;;;9.34;47.59
11124;BME280;5616;42.692;23.312;2024-03-23T07:48:55;95308.03;;;9.45;47.86
11124;BME280;5616;42.692;23.312;2024-03-23T07:51:21;95310.97;;;9.55;46.62
11124;BME280;5616;42.692;23.312;2024-03-23T07:53:48;95297.69;;;9.71;48.30
11124;BME280;5616;42.692;23.312;2024-03-23T07:56:17;95302.38;;;9.88;45.10
11124;BME280;5616;42.692;23.312;2024-03-23T07:58:47;95296.78;;;10.04;45.63
11124;BME280;5616;42.692;23.312;2024-03-23T08:01:15;95303.06;;;10.21;45.65
11124;BME280;5616;42.692;23.312;2024-03-23T08:03:44;95300.66;;;10.26;44.17
11124;BME280;5616;42.692;23.312;2024-03-23T08:06:15;95303.38;;;10.38;45.56
11124;BME280;5616;42.692;23.312;2024-03-23T08:08:42;95299.13;;;10.18;43.70
11124;BME280;5616;42.692;23.312;2024-03-23T08:11:08;95299.50;;;10.22;44.49
11124;BME280;5616;42.692;23.312;2024-03-23T08:13:34;95290.75;;;10.29;44.01
11124;BME280;5616;42.692;23.312;2024-03-23T08:16:02;95294.28;;;10.35;44.77
11124;BME280;5616;42.692;23.312;2024-03-23T08:18:27;95295.38;;;10.46;44.10
11124;BME280;5616;42.692;23.312;2024-03-23T08:21:01;95288.97;;;10.61;45.66
11124;BME280;5616;42.692;23.312;2024-03-23T08:23:27;95286.88;;;10.76;45.18
11124;BME280;5616;42.692;23.312;2024-03-23T08:26:04;95286.03;;;10.82;44.27
11124;BME280;5616;42.692;23.312;2024-03-23T08:28:30;95289.16;;;10.91;43.66
11124;BME280;5616;42.692;23.312;2024-03-23T08:30:56;95287.41;;;11.10;44.66
11124;BME280;5616;42.692;23.312;2024-03-23T08:33:22;95281.06;;;11.12;42.82
11124;BME280;5616;42.692;23.312;2024-03-23T08:38:19;95276.88;;;11.36;40.69
11124;BME280;5616;42.692;23.312;2024-03-23T08:40:45;95268.38;;;11.54;41.22
11124;BME280;5616;42.692;23.312;2024-03-23T08:43:10;95272.47;;;11.61;40.54
11124;BME280;5616;42.692;23.312;2024-03-23T08:45:36;95253.56;;;11.67;41.89
11124;BME280;5616;42.692;23.312;2024-03-23T08:48:01;95256.66;;;11.76;42.28
11124;BME280;5616;42.692;23.312;2024-03-23T08:50:28;95250.13;;;11.92;41.17
11124;BME280;5616;42.692;23.312;2024-03-23T08:52:53;95246.16;;;12.07;43.27
11124;BME280;5616;42.692;23.312;2024-03-23T08:55:18;95241.59;;;12.21;41.44
11124;BME280;5616;42.692;23.312;2024-03-23T08:57:44;95245.84;;;12.45;39.27
11124;BME280;5616;42.692;23.312;2024-03-23T09:00:10;95244.75;;;12.64;38.72
11124;BME280;5616;42.692;23.312;2024-03-23T09:02:36;95239.94;;;12.79;38.30
11124;BME280;5616;42.692;23.312;2024-03-23T09:05:02;95233.31;;;12.84;39.43
11124;BME280;5616;42.692;23.312;2024-03-23T09:07:31;95237.84;;;13.00;37.64
11124;BME280;5616;42.692;23.312;2024-03-23T09:09:56;95231.13;;;13.10;36.78
11124;BME280;5616;42.692;23.312;2024-03-23T09:12:22;95227.50;;;13.23;36.31
11124;BME280;5616;42.692;23.312;2024-03-23T09:14:49;95217.50;;;13.50;38.04
11124;BME280;5616;42.692;23.312;2024-03-23T09:17:14;95206.56;;;13.59;38.96
11124;BME280;5616;42.692;23.312;2024-03-23T09:19:40;95205.84;;;13.75;35.98
11124;BME280;5616;42.692;23.312;2024-03-23T09:22:05;95209.38;;;13.98;35.58
11124;BME280;5616;42.692;23.312;2024-03-23T09:24:31;95204.47;;;14.13;35.83
11124;BME280;5616;42.692;23.312;2024-03-23T09:26:57;95197.44;;;14.25;35.80
11124;BME280;5616;42.692;23.312;2024-03-23T09:29:23;95199.19;;;14.36;35.05
11124;BME280;5616;42.692;23.312;2024-03-23T09:31:48;95192.56;;;14.57;34.59
11124;BME280;5616;42.692;23.312;2024-03-23T09:34:14;95188.94;;;14.58;34.39
11124;BME280;5616;42.692;23.312;2024-03-23T09:36:40;95176.47;;;14.71;34.52
11124;BME280;5616;42.692;23.312;2024-03-23T09:39:07;95179.19;;;14.98;35.29
11124;BME280;5616;42.692;23.312;2024-03-23T09:41:35;95172.41;;;15.14;33.74
11124;BME280;5616;42.692;23.312;2024-03-23T09:44:01;95167.34;;;15.24;32.29
11124;BME280;5616;42.692;23.312;2024-03-23T09:46:26;95161.50;;;15.34;31.78
11124;BME280;5616;42.692;23.312;2024-03-23T09:48:55;95163.75;;;15.25;34.04
11124;BME280;5616;42.692;23.312;2024-03-23T09:51:21;95150.06;;;15.08;33.32
11124;BME280;5616;42.692;23.312;2024-03-23T09:53:49;95150.38;;;15.33;33.83
11124;BME280;5616;42.692;23.312;2024-03-23T09:56:15;95152.06;;;15.44;32.45
11124;BME280;5616;42.692;23.312;2024-03-23T09:58:42;95149.63;;;15.54;33.35
11124;BME280;5616;42.692;23.312;2024-03-23T10:01:08;95141.50;;;15.73;32.99
11124;BME280;5616;42.692;23.312;2024-03-23T10:03:42;95133.81;;;15.83;32.07
11124;BME280;5616;42.692;23.312;2024-03-23T10:06:07;95127.47;;;15.95;31.91
11124;BME280;5616;42.692;23.312;2024-03-23T10:08:33;95125.03;;;15.84;32.57
11124;BME280;5616;42.692;23.312;2024-03-23T10:11:13;95119.06;;;15.83;32.34
11124;BME280;5616;42.692;23.312;2024-03-23T10:13:41;95117.84;;;15.96;31.83
11124;BME280;5616;42.692;23.312;2024-03-23T10:16:07;95115.91;;;16.08;31.62
11124;BME280;5616;42.692;23.312;2024-03-23T10:18:37;95111.78;;;16.12;29.90
11124;BME280;5616;42.692;23.312;2024-03-23T10:23:35;95100.03;;;16.04;31.13
11124;BME280;5616;42.692;23.312;2024-03-23T10:28:56;95095.72;;;16.15;29.27
11124;BME280;5616;42.692;23.312;2024-03-23T10:31:24;95091.78;;;15.81;30.65
11124;BME280;5616;42.692;23.312;2024-03-23T10:33:50;95085.19;;;15.95;29.91
11124;BME280;5616;42.692;23.312;2024-03-23T10:36:16;95084.75;;;16.08;30.07
11124;BME280;5616;42.692;23.312;2024-03-23T10:38:44;95073.09;;;16.10;30.07
11124;BME280;5616;42.692;23.312;2024-03-23T10:41:12;95067.47;;;16.18;30.99
11124;BME280;5616;42.692;23.312;2024-03-23T10:43:38;95066.44;;;16.19;30.41
11124;BME280;5616;42.692;23.312;2024-03-23T10:46:04;95063.34;;;16.23;29.65
11124;BME280;5616;42.692;23.312;2024-03-23T10:48:33;95049.63;;;16.32;29.69
11124;BME280;5616;42.692;23.312;2024-03-23T10:50:59;95049.44;;;16.39;29.92
11124;BME280;5616;42.692;23.312;2024-03-23T10:53:26;95041.16;;;16.47;29.75
11124;BME280;5616;42.692;23.312;2024-03-23T10:55:53;95039.91;;;16.54;28.69
11124;BME280;5616;42.692;23.312;2024-03-23T10:58:23;95032.22;;;16.64;29.29
11124;BME280;5616;42.692;23.312;2024-03-23T11:00:50;95026.13;;;16.54;28.99
11124;BME280;5616;42.692;23.312;2024-03-23T11:05:56;95017.19;;;16.72;28.56
11124;BME280;5616;42.692;23.312;2024-03-23T11:08:36;95010.44;;;16.71;28.97
11124;BME280;5616;42.692;23.312;2024-03-23T11:11:21;95001.59;;;16.72;28.85
11124;BME280;5616;42.692;23.312;2024-03-23T11:13:49;94995.91;;;16.75;28.56
11124;BME280;5616;42.692;23.312;2024-03-23T11:16:22;94989.94;;;16.84;28.53
11124;BME280;5616;42.692;23.312;2024-03-23T11:18:49;94980.88;;;16.92;28.17
11124;BME280;5616;42.692;23.312;2024-03-23T11:21:52;94982.72;;;16.96;28.36
11124;BME280;5616;42.692;23.312;2024-03-23T11:24:21;94979.84;;;16.98;28.33
11124;BME280;5616;42.692;23.312;2024-03-23T11:26:48;94972.09;;;17.03;28.86
11124;BME280;5616;42.692;23.312;2024-03-23T11:29:16;94970.00;;;17.05;29.09
11124;BME280;5616;42.692;23.312;2024-03-23T11:31:49;94963.25;;;17.09;28.69
11124;BME280;5616;42.692;23.312;2024-03-23T11:34:15;94961.47;;;17.20;29.14
11124;BME280;5616;42.692;23.312;2024-03-23T11:36:42;94959.66;;;17.25;28.67
11124;BME280;5616;42.692;23.312;2024-03-23T11:39:14;94952.91;;;17.24;29.14
11124;BME280;5616;42.692;23.312;2024-03-23T11:41:56;94939.88;;;17.09;28.21
11124;BME280;5616;42.692;23.312;2024-03-23T11:44:23;94937.78;;;17.16;28.07
11124;BME280;5616;42.692;23.312;2024-03-23T11:46:50;94933.66;;;17.25;27.81
11124;BME280;5616;42.692;23.312;2024-03-23T11:49:28;94924.31;;;17.29;27.30
11124;BME280;5616;42.692;23.312;2024-03-23T11:51:56;94924.06;;;17.36;27.58
11124;BME280;5616;42.692;23.312;2024-03-23T11:54:22;94910.78;;;17.42;27.44
11124;BME280;5616;42.692;23.312;2024-03-23T11:56:59;94908.19;;;17.42;27.72
11124;BME280;5616;42.692;23.312;2024-03-23T12:01:57;94900.91;;;17.54;28.24
11124;BME280;5616;42.692;23.312;2024-03-23T12:04:28;94887.13;;;17.49;27.01
11124;BME280;5616;42.692;23.312;2024-03-23T12:07:13;94880.09;;;17.54;28.01
11124;BME280;5616;42.692;23.312;2024-03-23T12:09:40;94880.66;;;17.61;27.36
11124;BME280;5616;42.692;23.312;2024-03-23T12:12:18;94877.00;;;17.47;26.88
11124;BME280;5616;42.692;23.312;2024-03-23T12:15:06;94879.59;;;17.57;26.73
11124;BME280;5616;42.692;23.312;2024-03-23T12:17:33;94873.09;;;17.60;25.21
11124;BME280;5616;42.692;23.312;2024-03-23T12:20:00;94864.78;;;17.68;25.62
11124;BME280;5616;42.692;23.312;2024-03-23T12:22:26;94863.72;;;17.74;26.21
11124;BME280;5616;42.692;23.312;2024-03-23T12:24:52;94858.25;;;17.81;24.56
11124;BME280;5616;42.692;23.312;2024-03-23T12:27:18;94853.03;;;17.86;24.23
11124;BME280;5616;42.692;23.312;2024-03-23T12:29:43;94849.38;;;17.92;23.06
11124;BME280;5616;42.692;23.312;2024-03-23T12:32:11;94848.84;;;17.95;23.47
11124;BME280;5616;42.692;23.312;2024-03-23T12:34:37;94847.28;;;17.94;22.21
11124;BME280;5616;42.692;23.312;2024-03-23T12:37:02;94840.00;;;17.96;23.13
11124;BME280;5616;42.692;23.312;2024-03-23T12:39:28;94836.34;;;18.02;23.83
11124;BME280;5616;42.692;23.312;2024-03-23T12:41:53;94825.38;;;18.10;23.39
11124;BME280;5616;42.692;23.312;2024-03-23T12:44:19;94829.50;;;18.21;24.05
11124;BME280;5616;42.692;23.312;2024-03-23T12:46:45;94816.97;;;18.28;24.83
11124;BME280;5616;42.692;23.312;2024-03-23T12:49:11;94819.53;;;18.33;22.78
11124;BME280;5616;42.692;23.312;2024-03-23T12:51:36;94818.97;;;18.41;22.31
11124;BME280;5616;42.692;23.312;2024-03-23T12:54:02;94805.41;;;18.44;21.30
11124;BME280;5616;42.692;23.312;2024-03-23T12:56:28;94806.44;;;18.53;21.66
11124;BME280;5616;42.692;23.312;2024-03-23T12:58:54;94810.31;;;18.61;21.90
11124;BME280;5616;42.692;23.312;2024-03-23T13:01:20;94800.41;;;18.63;20.45
11124;BME280;5616;42.692;23.312;2024-03-23T13:03:50;94800.66;;;18.61;19.90
11124;BME280;5616;42.692;23.312;2024-03-23T13:06:16;94798.56;;;18.64;19.33
11124;BME280;5616;42.692;23.312;2024-03-23T13:08:44;94796.53;;;18.55;20.14
11124;BME280;5616;42.692;23.312;2024-03-23T13:11:10;94784.53;;;18.54;19.41
11124;BME280;5616;42.692;23.312;2024-03-23T13:13:36;94788.22;;;18.53;18.94
11124;BME280;5616;42.692;23.312;2024-03-23T13:16:03;94785.00;;;18.61;20.61
11124;BME280;5616;42.692;23.312;2024-03-23T13:18:30;94774.06;;;18.65;20.17
11124;BME280;5616;42.692;23.312;2024-03-23T13:20:55;94773.00;;;18.71;19.74
11124;BME280;5616;42.692;23.312;2024-03-23T13:23:21;94776.59;;;18.80;20.59
11124;BME280;5616;42.692;23.312;2024-03-23T13:25:53;94777.16;;;18.72;19.67
11124;BME280;5616;42.692;23.312;2024-03-23T13:28:22;94766.44;;;18.73;20.08
11124;BME280;5616;42.692;23.312;2024-03-23T13:30:55;94765.66;;;18.73;20.06
11124;BME280;5616;42.692;23.312;2024-03-23T13:33:21;94769.34;;;18.72;19.06
11124;BME280;5616;42.692;23.312;2024-03-23T13:35:53;94758.84;;;18.77;19.42
11124;BME280;5616;42.692;23.312;2024-03-23T13:38:20;94749.44;;;18.81;19.38
11124;BME280;5616;42.692;23.312;2024-03-23T13:40:57;94750.75;;;18.83;18.69
11124;BME280;5616;42.692;23.312;2024-03-23T13:43:23;94751.03;;;18.77;19.96
11124;BME280;5616;42.692;23.312;2024-03-23T13:45:52;94749.03;;;18.69;18.87
11124;BME280;5616;42.692;23.312;2024-03-23T13:48:19;94746.66;;;18.72;19.81
11124;BME280;5616;42.692;23.312;2024-03-23T13:50:45;94746.44;;;18.69;20.20
11124;BME280;5616;42.692;23.312;2024-03-23T13:53:14;94737.06;;;18.68;21.44
11124;BME280;5616;42.692;23.312;2024-03-23T13:55:47;94738.63;;;18.69;21.48
11124;BME280;5616;42.692;23.312;2024-03-23T13:58:16;94740.47;;;18.63;19.62
11124;BME280;5616;42.692;23.312;2024-03-23T14:00:41;94731.88;;;18.63;19.89
11124;BME280;5616;42.692;23.312;2024-03-23T14:03:11;94726.63;;;18.68;20.14
11124;BME280;5616;42.692;23.312;2024-03-23T14:05:37;94726.41;;;18.64;20.72
11124;BME280;5616;42.692;23.312;2024-03-23T14:08:09;94722.97;;;18.69;20.57
11124;BME280;5616;42.692;23.312;2024-03-23T14:10:36;94718.22;;;18.76;21.32
11124;BME280;5616;42.692;23.312;2024-03-23T14:13:02;94708.03;;;18.79;20.49